aviador You're here:

SARF Decoded Metar

FORMOSA in ARGENTINA
Report Time2018-02-22 08:00:00
UTC Time2018-02-22 08:21:40
Flight Rules vfr VFR
Wind230° at 03 kt
W.Decomp.*RWY 22: 2.8 kt HW 1.1 kt RCW
W.Rank230° ranks 6
Current wind is below 230° avg. (6.7)
Visibility9999 m
Phenomena:N/A
Clouds:N/A
Expected CloudBase > 1,200 ft AGL from Temp-Dew spread
CeilingNone
Temp19°C (ISA +4)
Dew Point16°C (83% RH)
QNH1013 hPa
Density Alt955 ft
Elevation197 ft
Report Wrong Elevation
Raw Report
SARF 220800Z 23003KT CAVOK 19/16 Q1013=

Extra information for SARF:More info

Metar Taf Metar & Taf Last 4 Metars F.Rules Stats Wind Profile Meteogram Temp Stats Airport Information Weather charts Add Link Nearby VenuesMetar ALERT Operation Metar Decoded Social comments